Bookmark and Share
Track history (hours):
 

Virgo Phoenix

Last reported at 2014-Apr-10 08:32 UTC. Time now 2014-Apr-16 13:49 UTC.
Position N 35°12' E 139°46'.

Length 96 m; draft 5.5 m.

Type: Ship (hazmat cat B). MMSI: 370795000.

NotesDate/timePositionNaut miles runAvg speedWind from/ knotsBaromVisibWave heightAir tempDewpointWater temp
2014-Apr-10 08:32N 35°12' E 139°46'1211.9
2014-Apr-10 07:33N 35°24' E 139°43'8 7.8
2014-Apr-10 06:33N 35°31' E 139°46'0 0.0
2014-Apr-10 05:33N 35°31' E 139°46'0 0.0
2014-Apr-10 04:33N 35°31' E 139°46'0 0.0
2014-Apr-10 03:33N 35°31' E 139°46'0 0.0
2014-Apr-10 02:27N 35°31' E 139°46'0 0.0
2014-Apr-10 01:33N 35°31' E 139°46'0 0.0
2014-Apr-10 00:33N 35°31' E 139°46'0 0.0
2014-Apr-09 23:33N 35°31' E 139°46'4 3.6
2014-Apr-09 22:33N 35°29' E 139°42'2 1.7
2014-Apr-09 21:31N 35°28' E 139°44'0 0.0
2014-Apr-09 20:28N 35°28' E 139°44'0 0.0
2014-Apr-09 19:28N 35°28' E 139°44'0 0.1
2014-Apr-09 18:33N 35°28' E 139°44'9 8.8
2014-Apr-09 17:33N 35°19' E 139°44'1212.2
2014-Apr-09 16:34N 35°07' E 139°45'1414.2
2014-Apr-09 15:33N 34°57' E 139°32'  
2014-Apr-04 19:29N 31°18' E 121°43'1011.1
2014-Apr-04 18:33N 31°24' E 121°33'10 9.6
2014-Apr-04 17:33N 31°30' E 121°24'1512.9
2014-Apr-04 16:24N 31°40' E 121°12'1213.7
2014-Apr-04 15:33N 31°47' E 121°00'1312.7
2014-Apr-04 14:33N 31°57' E 120°52'1313.2
2014-Apr-04 13:33N 32°00' E 120°37'12 9.8
2014-Apr-04 12:23N 32°01' E 120°23'1112.9
2014-Apr-04 11:34N 31°56' E 120°12'1211.8
2014-Apr-04 10:33N 31°60' E 119°59'  
2014-Apr-02 03:26N 32°15' E 119°41'15 7.2
2014-Apr-02 01:23N 32°07' E 119°55'3 2.9
2014-Apr-02 00:25N 32°04' E 119°56'0 0.0
2014-Apr-01 21:31N 32°04' E 119°56'0 0.1
2014-Apr-01 20:25N 32°04' E 119°56'0 0.0
2014-Apr-01 19:19N 32°04' E 119°56'0 0.0
2014-Apr-01 16:19N 32°04' E 119°56'0 0.0
2014-Apr-01 13:08N 32°04' E 119°56'5 8.5
2014-Apr-01 12:33N 31°60' E 119°59'1010.5
2014-Apr-01 11:34N 31°56' E 120°11'1211.7
2014-Apr-01 10:34N 32°01' E 120°23'1010.3
2014-Apr-01 09:33N 32°01' E 120°36'1212.1
2014-Apr-01 08:33N 31°60' E 120°50'1513.9
2014-Apr-01 07:31N 31°47' E 120°58'1714.0
2014-Apr-01 06:19N 31°38' E 121°15'1213.1
2014-Apr-01 05:24N 31°30' E 121°25'8 9.7
2014-Apr-01 04:33N 31°25' E 121°32'1110.6
2014-Apr-01 03:28N 31°18' E 121°43'  

Dump ship's entire track history

sailing weather and tide predictions

Virgo Phoenix — 3FMO8 — position and weather